createdAt,value
2023-04-11T00:00:54.668Z,11.70
2023-04-11T00:03:22.404Z,12.30
2023-04-11T00:05:49.461Z,13.85
2023-04-11T00:08:16.523Z,11.65
2023-04-11T00:10:44.994Z,11.82
2023-04-11T00:13:12.513Z,11.13
2023-04-11T00:15:39.468Z,15.63
2023-04-11T00:18:07.106Z,11.95
2023-04-11T00:20:34.276Z,10.38
2023-04-11T00:23:01.123Z,11.90
2023-04-11T00:25:29.695Z,10.45
2023-04-11T00:27:56.563Z,19.08
2023-04-11T00:30:23.373Z,14.00
2023-04-11T00:32:50.463Z,11.52
2023-04-11T00:35:17.362Z,12.88
2023-04-11T00:37:45.491Z,10.27
2023-04-11T00:40:17.626Z,13.32
2023-04-11T00:42:44.368Z,10.80
2023-04-11T00:45:11.792Z,10.98
2023-04-11T00:47:38.991Z,12.38
2023-04-11T00:50:06.630Z,11.95
2023-04-11T00:52:34.403Z,12.30
2023-04-11T00:55:06.944Z,12.35
2023-04-11T00:57:34.362Z,11.05
2023-04-11T01:00:01.725Z,12.10
2023-04-11T01:02:28.535Z,9.85
2023-04-11T01:04:56.553Z,11.00
2023-04-11T01:07:24.610Z,12.43
2023-04-11T01:09:52.636Z,13.48
2023-04-11T01:12:21.831Z,15.48
2023-04-11T01:14:49.096Z,13.38
2023-04-11T01:17:16.073Z,11.25
2023-04-11T01:19:43.172Z,12.73
2023-04-11T01:22:11.447Z,11.50
2023-04-11T01:24:38.368Z,14.00
2023-04-11T01:27:05.311Z,13.85
2023-04-11T01:29:32.288Z,15.05
2023-04-11T01:32:00.359Z,12.20
2023-04-11T01:34:28.596Z,13.40
2023-04-11T01:36:55.820Z,13.73
2023-04-11T01:39:22.915Z,13.45
2023-04-11T01:41:50.732Z,13.30
2023-04-11T01:44:19.238Z,10.27
2023-04-11T01:46:46.977Z,12.70
2023-04-11T01:49:18.859Z,12.50
2023-04-11T01:51:45.988Z,14.23
2023-04-11T01:54:12.919Z,12.60
2023-04-11T01:56:39.742Z,12.27
2023-04-11T01:59:06.501Z,13.57
2023-04-11T02:01:34.168Z,13.75
2023-04-11T02:04:01.671Z,13.20
2023-04-11T02:06:28.579Z,11.68
2023-04-11T02:08:55.760Z,11.82
2023-04-11T02:11:22.739Z,11.40
2023-04-11T02:13:49.769Z,20.08
2023-04-11T02:16:18.091Z,16.40
2023-04-11T02:18:46.228Z,11.07
2023-04-11T02:21:13.062Z,11.70
2023-04-11T02:23:39.971Z,11.93
2023-04-11T02:26:06.778Z,10.82
2023-04-11T02:28:33.572Z,12.00
2023-04-11T02:31:00.574Z,16.33
2023-04-11T02:33:27.394Z,13.30
2023-04-11T02:35:54.275Z,15.30
2023-04-11T02:38:21.324Z,14.20
2023-04-11T02:40:48.082Z,13.25
2023-04-11T02:43:16.185Z,12.02
2023-04-11T02:45:43.031Z,15.90
2023-04-11T02:48:09.793Z,12.95
2023-04-11T02:50:36.585Z,15.15
2023-04-11T02:53:03.411Z,15.02
2023-04-11T02:55:30.317Z,18.08
2023-04-11T02:57:57.113Z,14.07
2023-04-11T03:00:24.934Z,16.75
2023-04-11T03:02:51.707Z,23.63
2023-04-11T03:05:18.549Z,18.95
2023-04-11T03:07:46.901Z,17.10
2023-04-11T03:10:13.815Z,17.10
2023-04-11T03:12:40.605Z,29.88
2023-04-11T03:15:07.840Z,17.90
2023-04-11T03:17:34.667Z,17.63
2023-04-11T03:20:01.647Z,20.73
2023-04-11T03:22:28.431Z,15.95
2023-04-11T03:24:55.284Z,26.05
2023-04-11T03:27:22.005Z,19.23
2023-04-11T03:29:48.782Z,18.67
2023-04-11T03:32:15.538Z,20.90
2023-04-11T03:34:42.292Z,21.55
2023-04-11T03:37:09.051Z,19.60
2023-04-11T03:39:35.963Z,22.75
2023-04-11T03:42:02.878Z,19.15
2023-04-11T03:44:29.702Z,22.40
2023-04-11T03:46:56.671Z,20.30
2023-04-11T03:49:23.584Z,19.27
2023-04-11T03:51:50.797Z,21.10
2023-04-11T03:54:17.943Z,21.42
2023-04-11T03:56:44.706Z,23.90
2023-04-11T03:59:11.439Z,21.52
2023-04-11T04:01:38.322Z,23.83
2023-04-11T04:04:05.885Z,21.15
2023-04-11T04:06:32.803Z,23.98
2023-04-11T04:09:03.995Z,22.00
2023-04-11T04:11:30.782Z,21.48
2023-04-11T04:13:57.817Z,20.55
2023-04-11T04:16:24.861Z,23.63
2023-04-11T04:18:51.649Z,24.88
2023-04-11T04:21:39.749Z,24.38
2023-04-11T04:24:06.718Z,25.83
2023-04-11T04:26:33.499Z,20.83
2023-04-11T04:29:06.309Z,26.10
2023-04-11T04:31:34.117Z,23.65
2023-04-11T04:34:08.737Z,30.02
2023-04-11T04:36:49.322Z,25.85
2023-04-11T04:39:17.453Z,33.67
2023-04-11T04:41:44.958Z,27.08
2023-04-11T04:44:11.919Z,26.38
2023-04-11T04:46:38.718Z,29.70
2023-04-11T04:49:06.469Z,27.60
2023-04-11T04:51:33.464Z,29.63
2023-04-11T04:54:00.163Z,29.58
2023-04-11T04:56:30.548Z,22.95
2023-04-11T04:58:57.846Z,30.05
2023-04-11T05:01:26.699Z,26.00
2023-04-11T05:04:01.369Z,28.27
2023-04-11T05:06:31.408Z,29.38
2023-04-11T05:09:01.253Z,27.40
2023-04-11T05:11:28.797Z,24.80
2023-04-11T05:13:55.986Z,27.38
2023-04-11T05:16:23.033Z,31.38
2023-04-11T05:18:49.845Z,30.27
2023-04-11T05:21:16.799Z,34.33
2023-04-11T05:23:43.664Z,28.17
2023-04-11T05:26:11.365Z,30.15
2023-04-11T05:28:38.451Z,30.23
2023-04-11T05:31:06.454Z,31.35
2023-04-11T05:33:33.277Z,33.05
2023-04-11T05:36:00.670Z,34.83
2023-04-11T05:38:27.505Z,32.72
2023-04-11T05:40:54.272Z,32.83
2023-04-11T05:43:21.309Z,30.77
2023-04-11T05:45:48.713Z,30.15
2023-04-11T05:48:16.240Z,29.50
2023-04-11T05:50:43.416Z,31.83
2023-04-11T05:53:10.236Z,29.75
2023-04-11T05:55:37.501Z,31.77
2023-04-11T05:58:04.909Z,35.63
2023-04-11T06:00:32.402Z,29.75
2023-04-11T06:03:00.652Z,30.55
2023-04-11T06:05:31.331Z,27.45
2023-04-11T06:08:02.819Z,25.40
2023-04-11T06:10:31.021Z,23.75
2023-04-11T06:12:58.769Z,24.02
2023-04-11T06:15:29.034Z,25.20
2023-04-11T06:17:56.101Z,23.02
2023-04-11T06:20:23.776Z,21.75
2023-04-11T06:22:53.968Z,17.48
2023-04-11T06:25:21.747Z,25.20
2023-04-11T06:27:48.698Z,18.58
2023-04-11T06:30:15.635Z,21.80
2023-04-11T06:32:42.579Z,22.02
2023-04-11T06:35:09.806Z,21.40
2023-04-11T06:37:36.654Z,10.43
2023-04-11T06:40:07.205Z,9.38
2023-04-11T06:42:34.096Z,10.32
2023-04-11T06:45:01.424Z,11.65
2023-04-11T06:47:28.222Z,7.90
2023-04-11T06:49:55.640Z,6.40
2023-04-11T06:52:22.761Z,8.38
2023-04-11T06:54:49.500Z,5.88
2023-04-11T06:57:16.330Z,6.03
2023-04-11T06:59:43.079Z,8.73
2023-04-11T07:02:09.956Z,6.25
2023-04-11T07:04:36.919Z,5.00
2023-04-11T07:07:04.436Z,4.63
2023-04-11T07:09:31.628Z,3.22
2023-04-11T07:11:58.624Z,7.45
2023-04-11T07:14:25.845Z,5.72
2023-04-11T07:16:52.605Z,7.20
2023-04-11T07:19:19.437Z,9.57
2023-04-11T07:21:46.378Z,4.65
2023-04-11T07:24:13.289Z,5.80
2023-04-11T07:26:42.352Z,4.15
2023-04-11T07:29:11.570Z,2.55
2023-04-11T07:31:40.707Z,5.00
2023-04-11T07:34:07.589Z,7.85
2023-04-11T07:36:34.901Z,4.15
2023-04-11T07:39:02.216Z,4.15
2023-04-11T07:41:28.966Z,4.47
2023-04-11T07:43:55.916Z,5.90
2023-04-11T07:46:22.869Z,5.60
2023-04-11T07:48:49.613Z,3.20
2023-04-11T07:51:17.180Z,7.68
2023-04-11T07:53:44.005Z,7.25
2023-04-11T07:56:11.043Z,2.63
2023-04-11T07:58:37.883Z,7.25
2023-04-11T08:01:05.552Z,3.58
2023-04-11T08:03:32.788Z,4.88
2023-04-11T08:05:59.670Z,6.88
2023-04-11T08:08:26.424Z,7.63
2023-04-11T08:10:53.125Z,6.55
2023-04-11T08:13:19.890Z,4.32
2023-04-11T08:15:46.687Z,6.50
2023-04-11T08:18:13.805Z,6.55
2023-04-11T08:20:40.849Z,10.05
2023-04-11T08:23:08.620Z,6.22
2023-04-11T08:25:36.538Z,4.85
2023-04-11T08:28:05.012Z,4.97
2023-04-11T08:30:32.247Z,4.05
2023-04-11T08:32:59.271Z,9.23
2023-04-11T08:35:26.470Z,6.40
2023-04-11T09:14:10.661Z,5.82
2023-04-11T09:16:52.932Z,5.07
2023-04-11T09:19:28.182Z,5.45
2023-04-11T09:22:00.233Z,4.38
2023-04-11T09:24:32.015Z,1.88
2023-04-11T09:27:16.812Z,4.18
2023-04-11T09:29:48.098Z,3.05
2023-04-11T09:32:30.196Z,4.30
2023-04-11T09:35:20.829Z,2.20
2023-04-11T09:37:55.893Z,3.55
2023-04-11T09:40:24.550Z,5.30
2023-04-11T09:45:51.781Z,9.82
2023-04-11T09:48:22.114Z,6.28
2023-04-11T09:50:54.262Z,7.60
2023-04-11T09:53:21.223Z,7.47
2023-04-11T09:55:48.115Z,6.38
2023-04-11T09:58:15.403Z,1.85
2023-04-11T10:00:44.899Z,7.55
2023-04-11T10:03:12.098Z,10.48
2023-04-11T10:05:39.652Z,5.57
2023-04-11T10:08:13.784Z,3.10
2023-04-11T10:10:43.780Z,9.02
2023-04-11T10:13:37.900Z,7.85
2023-04-11T10:16:10.051Z,2.83
2023-04-11T10:18:41.127Z,2.85
2023-04-11T10:21:30.905Z,6.05
2023-04-11T10:24:16.708Z,2.08
2023-04-11T10:26:55.983Z,4.43
2023-04-11T10:29:29.204Z,6.15
2023-04-11T10:32:15.082Z,3.78
2023-04-11T10:34:51.402Z,10.27
2023-04-11T10:37:19.507Z,5.53
2023-04-11T10:39:55.488Z,3.22
2023-04-11T10:42:28.844Z,5.35
2023-04-11T10:45:13.986Z,5.30
2023-04-11T10:47:40.844Z,2.42
2023-04-11T10:50:26.464Z,4.35
2023-04-11T10:53:06.089Z,5.50
2023-04-11T10:55:46.322Z,8.00
2023-04-11T10:58:15.532Z,1.55
2023-04-11T11:00:54.416Z,1.55
2023-04-11T11:03:30.723Z,3.17
2023-04-11T11:05:58.900Z,1.85
2023-04-11T11:08:30.588Z,1.65
2023-04-11T11:11:04.120Z,1.30
2023-04-11T11:13:45.228Z,2.17
2023-04-11T11:16:20.398Z,1.48
2023-04-11T11:18:56.597Z,1.90
2023-04-11T11:21:28.325Z,2.45
2023-04-11T11:23:56.551Z,3.78
2023-04-11T11:26:58.213Z,3.00
2023-04-11T11:29:36.855Z,1.55
2023-04-11T11:32:04.259Z,1.65
2023-04-11T11:34:32.844Z,1.92
2023-04-11T11:37:07.139Z,1.85
2023-04-11T11:39:35.435Z,4.65
2023-04-11T11:42:03.423Z,1.13
2023-04-11T11:44:31.519Z,0.80
2023-04-11T11:47:05.456Z,1.30
2023-04-11T11:49:53.029Z,7.20
2023-04-11T11:52:36.616Z,2.05
2023-04-11T11:57:52.941Z,0.55
2023-04-11T12:00:27.454Z,0.65
2023-04-11T12:02:56.200Z,4.50
2023-04-11T12:05:29.961Z,0.98
2023-04-11T12:07:59.449Z,5.25
2023-04-11T12:10:36.702Z,0.85
2023-04-11T12:13:19.613Z,1.15
2023-04-11T12:15:57.915Z,1.33
2023-04-11T12:18:27.507Z,1.80
2023-04-11T12:20:54.922Z,4.03
2023-04-11T12:23:22.855Z,5.10
2023-04-11T12:25:49.681Z,3.63
2023-04-11T12:28:16.598Z,1.15
2023-04-11T12:30:43.581Z,0.95
2023-04-11T12:33:10.377Z,3.85
2023-04-11T12:35:37.588Z,1.60
2023-04-11T12:38:04.550Z,1.33
2023-04-11T12:40:31.451Z,2.53
2023-04-11T12:42:58.241Z,1.20
2023-04-11T12:45:25.927Z,1.55
2023-04-11T12:47:53.129Z,1.98
2023-04-11T12:50:20.959Z,1.58
2023-04-11T12:52:49.309Z,2.22
2023-04-11T12:55:16.249Z,5.45
2023-04-11T12:57:43.776Z,3.05
2023-04-11T13:00:12.818Z,2.38
2023-04-11T13:02:43.974Z,1.95
2023-04-11T13:05:14.253Z,2.42
2023-04-11T13:07:42.091Z,1.30
2023-04-11T13:10:09.477Z,3.80
2023-04-11T13:12:44.732Z,2.95
2023-04-11T13:15:13.515Z,5.90
2023-04-11T13:17:40.785Z,3.40
2023-04-11T13:20:10.164Z,2.03
2023-04-11T13:22:38.310Z,4.07
2023-04-11T13:25:05.880Z,7.07
2023-04-11T13:27:32.890Z,5.40
2023-04-11T13:29:59.776Z,2.67
2023-04-11T13:32:27.796Z,2.17
2023-04-11T13:34:54.686Z,1.00
2023-04-11T13:37:22.167Z,5.20
2023-04-11T13:39:49.174Z,8.50
2023-04-11T13:42:16.020Z,4.18
2023-04-11T13:44:42.939Z,3.80
2023-04-11T13:47:09.713Z,4.65
2023-04-11T13:49:36.655Z,7.88
2023-04-11T13:52:03.504Z,7.93
2023-04-11T13:54:30.412Z,7.82
2023-04-11T13:56:58.968Z,4.45
2023-04-11T13:59:27.860Z,2.67
2023-04-11T14:01:54.849Z,5.45
2023-04-11T14:04:22.255Z,2.75
2023-04-11T14:06:49.255Z,2.67
2023-04-11T14:09:16.437Z,8.40
2023-04-11T14:11:43.597Z,6.32
2023-04-11T14:14:10.380Z,5.47
2023-04-11T14:16:37.223Z,3.72
2023-04-11T14:19:04.384Z,3.97
2023-04-11T14:21:31.734Z,3.08
2023-04-11T14:23:58.923Z,1.83
2023-04-11T14:26:26.164Z,1.75
2023-04-11T14:28:53.089Z,1.05
2023-04-11T14:31:20.106Z,1.23
2023-04-11T14:33:47.354Z,2.28
2023-04-11T14:36:14.781Z,3.40
2023-04-11T14:38:41.549Z,0.90
2023-04-11T14:41:08.338Z,3.55
2023-04-11T14:43:35.102Z,1.23
2023-04-11T14:46:01.963Z,2.42
2023-04-11T14:48:29.238Z,3.60
2023-04-11T14:50:56.120Z,1.02
2023-04-11T14:53:23.252Z,0.73
2023-04-11T14:55:50.464Z,3.63
2023-04-11T14:58:17.323Z,1.60
2023-04-11T15:00:44.778Z,1.73
2023-04-11T15:03:12.306Z,1.83
2023-04-11T15:05:39.499Z,2.45
2023-04-11T15:08:06.465Z,1.67
2023-04-11T15:10:33.400Z,1.27
2023-04-11T15:13:00.229Z,2.25
2023-04-11T15:15:27.216Z,3.65
2023-04-11T15:18:18.981Z,1.27
2023-04-11T15:20:47.074Z,2.47
2023-04-11T15:23:13.880Z,4.32
2023-04-11T15:25:40.727Z,3.00
2023-04-11T15:28:08.034Z,3.58
2023-04-11T15:30:35.404Z,3.67
2023-04-11T15:33:02.640Z,4.43
2023-04-11T15:35:34.011Z,2.08
2023-04-11T15:38:01.553Z,4.07
2023-04-11T15:40:28.745Z,12.88
2023-04-11T15:43:45.752Z,4.47
2023-04-11T15:46:12.740Z,3.72
2023-04-11T15:48:39.591Z,7.60
2023-04-11T15:51:10.866Z,3.15
2023-04-11T15:53:37.805Z,3.88
2023-04-11T15:56:06.254Z,4.00
2023-04-11T15:58:33.924Z,4.15
2023-04-11T16:01:01.993Z,5.28
2023-04-11T16:03:32.391Z,7.30
2023-04-11T16:06:02.281Z,3.03
2023-04-11T16:08:32.147Z,6.53
2023-04-11T16:11:01.068Z,8.95
2023-04-11T16:13:28.348Z,8.43
2023-04-11T16:15:55.609Z,3.95
2023-04-11T16:18:22.884Z,11.85
2023-04-11T16:20:50.027Z,8.75
2023-04-11T16:23:57.866Z,5.88
2023-04-11T16:26:26.182Z,5.38
2023-04-11T16:28:53.183Z,12.63
2023-04-11T16:31:26.612Z,5.60
2023-04-11T16:33:55.041Z,5.63
2023-04-11T16:36:22.390Z,3.13
2023-04-11T16:39:44.013Z,2.97
2023-04-11T16:42:11.011Z,4.07
2023-04-11T16:48:21.363Z,5.78
2023-04-11T16:54:13.640Z,4.30
2023-04-11T16:56:40.805Z,3.75
2023-04-11T16:59:07.690Z,3.33
2023-04-11T17:01:34.584Z,2.30
2023-04-11T17:04:02.075Z,5.30
2023-04-11T17:06:29.105Z,5.57
2023-04-11T17:08:57.433Z,4.30
2023-04-11T17:11:24.986Z,7.30
2023-04-11T17:13:54.475Z,2.58
2023-04-11T17:16:21.926Z,8.32
2023-04-11T17:18:48.836Z,12.23
2023-04-11T17:21:17.048Z,5.72
2023-04-11T17:23:44.307Z,2.53
2023-04-11T17:26:11.885Z,8.70
2023-04-11T17:28:39.781Z,10.70
2023-04-11T17:31:14.028Z,6.43
2023-04-11T17:33:41.840Z,16.25
2023-04-11T17:36:09.762Z,9.48
2023-04-11T17:38:37.814Z,6.20
2023-04-11T17:41:13.765Z,8.20
2023-04-11T17:43:41.625Z,6.43
2023-04-11T17:46:09.208Z,4.18
2023-04-11T17:48:36.705Z,7.90
2023-04-11T17:51:07.152Z,4.60
2023-04-11T17:53:34.368Z,5.78
2023-04-11T17:56:05.608Z,6.85
2023-04-11T17:58:32.754Z,6.03
2023-04-11T18:04:40.059Z,5.50
2023-04-11T18:07:07.241Z,7.82
2023-04-11T18:09:34.060Z,9.18
2023-04-11T18:12:01.659Z,8.70
2023-04-11T18:14:28.475Z,5.75
2023-04-11T18:16:55.475Z,6.20
2023-04-11T18:19:24.737Z,13.23
2023-04-11T18:21:52.021Z,8.32
2023-04-11T18:24:22.936Z,9.07
2023-04-11T18:26:50.067Z,10.00
2023-04-11T18:29:16.894Z,13.90
2023-04-11T18:31:43.772Z,5.90
2023-04-11T18:34:13.310Z,7.80
2023-04-11T18:36:40.630Z,7.38
2023-04-11T18:39:07.651Z,8.25
2023-04-11T18:41:34.412Z,12.88
2023-04-11T18:44:02.620Z,8.07
2023-04-11T18:46:29.999Z,6.57
2023-04-11T18:48:56.972Z,8.10
2023-04-11T18:51:23.808Z,5.10
2023-04-11T18:53:50.598Z,4.95
2023-04-11T18:56:17.435Z,8.02
2023-04-11T18:58:46.782Z,4.78
2023-04-11T19:01:16.980Z,5.35
2023-04-11T19:03:44.948Z,7.95
2023-04-11T19:06:12.991Z,6.28
2023-04-11T19:08:40.140Z,5.53
2023-04-11T19:11:06.945Z,2.92
2023-04-11T19:13:33.761Z,10.43
2023-04-11T19:16:00.996Z,2.58
2023-04-11T19:18:27.873Z,4.75
2023-04-11T19:20:54.944Z,2.85
2023-04-11T19:23:21.972Z,6.55
2023-04-11T19:25:49.454Z,4.28
2023-04-11T19:28:16.343Z,6.70
2023-04-11T19:30:43.174Z,6.85
2023-04-11T19:33:11.324Z,9.68
2023-04-11T19:35:40.211Z,6.57
2023-04-11T19:38:07.982Z,5.15
2023-04-11T19:40:35.466Z,10.50
2023-04-11T19:43:02.363Z,5.07
2023-04-11T19:45:31.554Z,10.05
2023-04-11T19:47:58.892Z,4.88
2023-04-11T19:50:25.968Z,13.13
2023-04-11T19:52:59.242Z,6.72
2023-04-11T19:55:27.218Z,4.80
2023-04-11T19:57:54.406Z,8.02
2023-04-11T20:00:21.418Z,9.00
2023-04-11T20:02:48.584Z,12.27
2023-04-11T20:05:17.889Z,7.13
2023-04-11T20:07:46.616Z,9.00
2023-04-11T20:10:14.586Z,9.50
2023-04-11T20:12:41.460Z,11.98
2023-04-11T20:15:09.245Z,7.05
2023-04-11T20:17:36.056Z,11.43
2023-04-11T20:20:05.949Z,11.43
2023-04-11T20:22:33.134Z,13.55
2023-04-11T20:24:59.908Z,11.20
2023-04-11T20:27:28.011Z,11.25
2023-04-11T20:29:56.712Z,20.77
2023-04-11T20:32:23.745Z,12.45
2023-04-11T20:34:50.553Z,23.50
2023-04-11T20:37:18.950Z,10.57
2023-04-11T20:39:45.841Z,12.82
2023-04-11T20:42:12.720Z,15.63
2023-04-11T20:44:39.579Z,16.90
2023-04-11T20:47:09.472Z,13.45
2023-04-11T20:49:36.275Z,18.38
2023-04-11T20:52:03.643Z,25.10
2023-04-11T20:54:30.433Z,12.20
2023-04-11T20:56:58.557Z,13.85
2023-04-11T20:59:26.383Z,10.40
2023-04-11T21:01:53.703Z,15.40
2023-04-11T21:04:22.074Z,15.07
2023-04-11T21:06:49.933Z,26.67
2023-04-11T21:09:17.373Z,23.52
2023-04-11T21:11:44.114Z,20.73
2023-04-11T21:14:10.979Z,13.55
2023-04-11T21:16:37.752Z,20.40
2023-04-11T21:19:04.577Z,23.15
2023-04-11T21:21:31.414Z,22.08
2023-04-11T21:23:58.394Z,17.15
2023-04-11T21:26:26.099Z,17.88
2023-04-11T21:28:52.967Z,16.13
2023-04-11T21:31:19.789Z,15.90
2023-04-11T21:33:46.814Z,23.75
2023-04-11T21:36:13.605Z,23.90
2023-04-11T21:38:40.501Z,23.05
2023-04-11T21:41:07.581Z,23.85
2023-04-11T21:43:34.426Z,16.45
2023-04-11T21:46:01.238Z,24.55
2023-04-11T21:48:28.015Z,20.00
2023-04-11T21:50:54.828Z,19.30
2023-04-11T21:53:21.644Z,19.45
2023-04-11T21:55:48.682Z,19.88
2023-04-11T21:58:28.052Z,19.50
2023-04-11T22:00:55.836Z,20.33
2023-04-11T22:03:23.107Z,23.77
2023-04-11T22:05:52.329Z,28.20
2023-04-11T22:08:19.913Z,29.25
2023-04-11T22:10:48.153Z,19.80
2023-04-11T22:13:17.044Z,25.60
2023-04-11T22:15:44.738Z,21.38
2023-04-11T22:18:12.524Z,25.02
2023-04-11T22:20:43.492Z,22.80
2023-04-11T22:23:13.181Z,29.98
2023-04-11T22:25:43.950Z,22.42
2023-04-11T22:28:15.662Z,25.15
2023-04-11T22:30:44.102Z,23.33
2023-04-11T22:33:13.641Z,19.23
2023-04-11T22:35:41.367Z,21.42
2023-04-11T22:38:08.326Z,22.63
2023-04-11T22:40:35.512Z,17.20
2023-04-11T22:43:02.806Z,24.48
2023-04-11T22:45:29.599Z,24.83
2023-04-11T22:47:59.944Z,21.30
2023-04-11T22:50:26.858Z,27.60
2023-04-11T22:52:54.801Z,21.20
2023-04-11T22:55:24.636Z,32.05
2023-04-11T22:57:51.554Z,24.50
2023-04-11T23:03:53.023Z,28.00
2023-04-11T23:06:19.841Z,26.77
2023-04-11T23:08:47.475Z,27.67
2023-04-11T23:11:14.218Z,27.60
2023-04-11T23:13:41.213Z,25.75
2023-04-11T23:16:09.052Z,25.00
2023-04-11T23:18:36.028Z,19.08
2023-04-11T23:21:02.840Z,27.30
2023-04-11T23:23:29.747Z,35.60
2023-04-11T23:25:57.457Z,25.75
2023-04-11T23:28:24.338Z,20.42
2023-04-11T23:30:51.135Z,27.73
2023-04-11T23:33:18.355Z,25.95
2023-04-11T23:35:45.123Z,30.38
2023-04-11T23:38:11.945Z,26.52
2023-04-11T23:40:39.321Z,26.02
2023-04-11T23:43:06.287Z,24.95
2023-04-11T23:45:33.331Z,31.85
2023-04-11T23:48:00.352Z,38.38
2023-04-11T23:50:27.398Z,24.55
2023-04-11T23:52:54.217Z,22.98
2023-04-11T23:55:21.822Z,20.52
2023-04-11T23:57:49.561Z,19.00
